Time;durP1;ratioP1;P1;durP2;ratioP2;P2;SDS_P1;SDS_P2;PMS_P1;PMS_P2;Temp;Humidity;BMP_temperature;BMP_pressure;BME280_temperature;BME280_humidity;BME280_pressure;Samples;Min_cycle;Max_cycle;Signal;HPM_P1;HPM_P2
2021/01/05 00:01:20;;;;;;;9.45;7.75;;;3.10;99.90;;;;;;5004369;28;20478;-87
2021/01/05 00:03:46;;;;;;;9.45;6.72;;;3.10;99.90;;;;;;5001320;28;20168;-87
2021/01/05 00:06:11;;;;;;;9.82;7.28;;;3.10;99.90;;;;;;5013225;28;20023;-86
2021/01/05 00:08:37;;;;;;;8.88;6.97;;;3.10;99.90;;;;;;5005790;28;20041;-86
2021/01/05 00:11:02;;;;;;;9.25;7.22;;;3.10;99.90;;;;;;4998617;28;20023;-87
2021/01/05 00:13:28;;;;;;;8.75;6.82;;;3.10;99.90;;;;;;5015152;28;20022;-86
2021/01/05 00:15:53;;;;;;;11.77;8.40;;;3.10;99.90;;;;;;5005270;28;20117;-86
2021/01/05 00:18:19;;;;;;;11.43;8.57;;;3.10;99.90;;;;;;4998687;28;20105;-86
2021/01/05 00:20:44;;;;;;;12.13;8.93;;;3.10;99.90;;;;;;4999825;28;20026;-86
2021/01/05 00:23:10;;;;;;;8.88;6.95;;;3.10;99.90;;;;;;5002443;28;20045;-87
2021/01/05 00:25:36;;;;;;;9.52;6.75;;;3.10;99.90;;;;;;5000881;28;20029;-87
2021/01/05 00:28:01;;;;;;;11.82;8.30;;;3.10;99.90;;;;;;5009479;28;20030;-86
2021/01/05 00:30:27;;;;;;;10.63;7.85;;;3.10;99.90;;;;;;5000015;28;20533;-86
2021/01/05 00:32:54;;;;;;;11.10;7.97;;;3.10;99.90;;;;;;4999731;28;20043;-87
2021/01/05 00:35:26;;;;;;;12.77;8.35;;;3.10;99.90;;;;;;5007433;28;20054;-86
2021/01/05 00:37:53;;;;;;;11.25;8.05;;;3.10;99.90;;;;;;5008794;28;20074;-86
2021/01/05 00:40:21;;;;;;;11.30;8.00;;;3.10;99.90;;;;;;5004419;28;20105;-87
2021/01/05 00:42:47;;;;;;;12.05;8.43;;;3.10;99.90;;;;;;5002717;28;20023;-86
2021/01/05 00:45:34;;;;;;;11.93;8.23;;;3.10;99.90;;;;;;5001966;28;20112;-86
2021/01/05 00:48:00;;;;;;;12.55;9.05;;;3.10;99.90;;;;;;4997590;28;20022;-86
2021/01/05 00:50:26;;;;;;;10.45;7.32;;;3.10;99.90;;;;;;5006195;28;20017;-87
2021/01/05 00:52:52;;;;;;;12.32;8.18;;;3.20;99.90;;;;;;5004259;28;20390;-87
2021/01/05 00:55:18;;;;;;;10.75;8.27;;;3.20;99.90;;;;;;4998659;28;20448;-86
2021/01/05 00:57:44;;;;;;;12.90;7.72;;;3.10;99.90;;;;;;5001979;28;20030;-86
2021/01/05 01:00:15;;;;;;;9.77;7.53;;;3.10;99.90;;;;;;4999269;28;20018;-86
2021/01/05 01:02:41;;;;;;;11.68;7.93;;;3.10;99.90;;;;;;5005076;28;20026;-87
2021/01/05 01:05:07;;;;;;;12.52;8.60;;;3.10;99.90;;;;;;5004668;28;20025;-87
2021/01/05 01:07:32;;;;;;;12.30;8.95;;;3.10;99.90;;;;;;5013545;28;20034;-87
2021/01/05 01:09:58;;;;;;;12.75;9.60;;;3.10;99.90;;;;;;5002051;28;20018;-87
2021/01/05 01:12:24;;;;;;;13.82;9.55;;;3.10;99.90;;;;;;5001371;28;20021;-87
2021/01/05 01:14:53;;;;;;;14.13;8.48;;;3.10;99.90;;;;;;5000235;28;20054;-86
2021/01/05 01:17:20;;;;;;;12.80;8.57;;;3.10;99.90;;;;;;5003260;28;20026;-86
2021/01/05 01:19:46;;;;;;;12.52;8.32;;;3.00;99.90;;;;;;4996006;28;20033;-87
2021/01/05 01:22:12;;;;;;;13.43;8.95;;;3.10;99.90;;;;;;5006582;28;20029;-86
2021/01/05 01:24:37;;;;;;;15.07;8.75;;;3.10;99.90;;;;;;5000617;28;20422;-86
2021/01/05 01:27:03;;;;;;;13.35;9.05;;;3.00;99.90;;;;;;4998391;28;20129;-87
2021/01/05 01:29:29;;;;;;;13.05;8.68;;;3.00;99.90;;;;;;4999163;28;20017;-86
2021/01/05 01:31:56;;;;;;;13.18;9.27;;;3.00;99.90;;;;;;4996085;28;20478;-86
2021/01/05 01:34:24;;;;;;;13.32;8.93;;;3.00;99.90;;;;;;4997421;28;20090;-86
2021/01/05 01:37:01;;;;;;;13.25;8.43;;;3.00;99.90;;;;;;5004255;28;20080;-86
2021/01/05 01:39:28;;;;;;;11.90;7.88;;;3.10;99.90;;;;;;5001194;28;20034;-86
2021/01/05 01:41:54;;;;;;;12.48;9.35;;;3.10;99.90;;;;;;5004851;28;20029;-86
2021/01/05 01:44:26;;;;;;;16.02;9.77;;;3.10;99.90;;;;;;5005446;28;20025;-87
2021/01/05 01:46:57;;;;;;;14.60;10.15;;;3.10;99.90;;;;;;4999272;28;20195;-87
2021/01/05 01:49:23;;;;;;;13.43;8.80;;;3.10;99.90;;;;;;5001251;28;20559;-86
2021/01/05 01:51:51;;;;;;;13.82;8.95;;;3.10;99.90;;;;;;5003147;28;20101;-86
2021/01/05 01:54:46;;;;;;;12.98;9.07;;;3.00;99.90;;;;;;5003819;28;20041;-86
2021/01/05 01:57:29;;;;;;;13.95;9.60;;;3.10;99.90;;;;;;5000126;28;20113;-86
2021/01/05 02:00:13;;;;;;;11.85;8.63;;;3.10;99.90;;;;;;5008608;28;20030;-86
2021/01/05 02:03:17;;;;;;;12.25;8.90;;;3.10;99.90;;;;;;4993958;28;20032;-87
2021/01/05 02:06:08;;;;;;;14.52;10.45;;;3.10;99.90;;;;;;5000533;28;20108;-87
2021/01/05 02:08:53;;;;;;;17.13;10.13;;;3.10;99.90;;;;;;4998401;28;20053;-87
2021/01/05 02:11:36;;;;;;;13.73;9.98;;;3.10;99.90;;;;;;5000442;28;20029;-87
2021/01/05 02:14:16;;;;;;;14.45;9.77;;;3.10;99.90;;;;;;5005630;28;20505;-86
2021/01/05 02:17:17;;;;;;;13.35;9.48;;;3.10;99.90;;;;;;4995609;28;20072;-86
2021/01/05 02:19:51;;;;;;;13.65;8.98;;;3.10;99.90;;;;;;4999070;28;20027;-85
2021/01/05 02:22:55;;;;;;;16.23;9.48;;;3.10;99.90;;;;;;4998756;28;20027;-86
2021/01/05 02:25:27;;;;;;;12.77;9.70;;;3.10;99.90;;;;;;5002246;28;20022;-86
2021/01/05 02:27:58;;;;;;;13.20;8.98;;;3.00;99.90;;;;;;4998907;28;20034;-87
2021/01/05 02:30:28;;;;;;;13.98;9.48;;;3.00;99.90;;;;;;4995993;28;20045;-86
2021/01/05 02:33:31;;;;;;;13.98;9.00;;;3.10;99.90;;;;;;4997535;28;20037;-86
2021/01/05 02:36:37;;;;;;;11.98;7.97;;;3.10;99.90;;;;;;4995091;28;20061;-86
2021/01/05 02:39:38;;;;;;;12.63;8.80;;;3.10;99.90;;;;;;4995973;28;20023;-86
2021/01/05 02:42:04;;;;;;;12.93;9.10;;;3.20;99.90;;;;;;5000951;28;20441;-86
2021/01/05 02:44:40;;;;;;;14.27;9.27;;;3.10;99.90;;;;;;5003745;28;20050;-86
2021/01/05 02:47:24;;;;;;;11.80;8.27;;;3.20;99.90;;;;;;5001723;28;20018;-86
2021/01/05 02:50:04;;;;;;;11.52;8.32;;;3.10;99.90;;;;;;5000738;28;20014;-86
2021/01/05 02:53:15;;;;;;;12.18;8.70;;;3.20;99.90;;;;;;4996952;28;20042;-86
2021/01/05 02:56:18;;;;;;;11.93;8.45;;;3.20;99.90;;;;;;4997028;28;20023;-86
2021/01/05 02:59:18;;;;;;;11.80;8.35;;;3.20;99.90;;;;;;5004890;28;20024;-86
2021/01/05 03:02:11;;;;;;;10.35;7.15;;;3.20;99.90;;;;;;4997376;28;20077;-86
2021/01/05 03:04:37;;;;;;;10.70;7.90;;;3.20;99.90;;;;;;5000866;28;20077;-86
2021/01/05 03:07:15;;;;;;;11.32;8.02;;;3.20;99.90;;;;;;4999386;28;20022;-86
2021/01/05 03:10:19;;;;;;;12.75;8.90;;;3.20;99.90;;;;;;5001791;28;20022;-86
2021/01/05 03:13:24;;;;;;;12.77;9.00;;;3.20;99.90;;;;;;4984588;28;20030;-87
2021/01/05 03:16:01;;;;;;;10.77;8.05;;;3.20;99.90;;;;;;5011797;28;20433;-86
2021/01/05 03:18:56;;;;;;;13.48;8.52;;;3.20;99.90;;;;;;5008066;28;20030;-87
2021/01/05 03:21:36;;;;;;;12.77;8.35;;;3.20;99.90;;;;;;4997345;28;20042;-85
2021/01/05 03:24:03;;;;;;;13.38;8.80;;;3.20;99.90;;;;;;5000782;28;20022;-87
2021/01/05 03:26:35;;;;;;;15.65;9.93;;;3.20;99.90;;;;;;5002998;28;20022;-87
2021/01/05 03:29:01;;;;;;;13.77;9.02;;;3.20;99.90;;;;;;5001376;28;20014;-87
2021/01/05 03:31:40;;;;;;;15.05;10.30;;;3.20;99.90;;;;;;5003913;28;20064;-86
2021/01/05 03:34:06;;;;;;;14.75;10.18;;;3.30;99.90;;;;;;5007866;28;20080;-87
2021/01/05 03:36:32;;;;;;;14.68;10.00;;;3.20;99.90;;;;;;4999571;28;20047;-87
2021/01/05 03:38:57;;;;;;;15.30;10.27;;;3.20;99.90;;;;;;5004292;28;20053;-87
2021/01/05 03:41:23;;;;;;;15.13;9.50;;;3.20;99.90;;;;;;5000622;28;20022;-87
2021/01/05 03:43:48;;;;;;;14.02;9.73;;;3.20;99.90;;;;;;5011514;28;20033;-87
2021/01/05 03:46:14;;;;;;;14.60;10.18;;;3.20;99.90;;;;;;4999427;28;20022;-87
2021/01/05 03:48:41;;;;;;;17.60;11.52;;;3.20;99.90;;;;;;5002952;28;20026;-87
2021/01/05 03:51:07;;;;;;;14.95;10.20;;;3.20;99.90;;;;;;5018115;28;20049;-87
2021/01/05 03:53:32;;;;;;;16.88;10.98;;;3.20;99.90;;;;;;4999927;28;20022;-87
2021/01/05 03:55:58;;;;;;;15.18;9.75;;;3.20;99.90;;;;;;5005516;28;20030;-86
2021/01/05 03:58:24;;;;;;;16.88;11.02;;;3.20;99.90;;;;;;5000735;28;20494;-86
2021/01/05 04:00:49;;;;;;;17.02;11.80;;;3.20;99.90;;;;;;5006362;28;20038;-87
2021/01/05 04:03:15;;;;;;;17.13;11.45;;;3.20;99.90;;;;;;4996555;28;20500;-87
2021/01/05 04:05:41;;;;;;;15.20;10.43;;;3.20;99.90;;;;;;5003878;28;20407;-86
2021/01/05 04:08:06;;;;;;;16.45;11.00;;;3.20;99.90;;;;;;5011905;28;20480;-86
2021/01/05 04:10:32;;;;;;;16.83;11.65;;;3.20;99.90;;;;;;4998061;28;20057;-87
2021/01/05 04:12:57;;;;;;;15.48;10.27;;;3.20;99.90;;;;;;5002691;28;20037;-86
2021/01/05 04:15:28;;;;;;;16.33;10.95;;;3.20;99.90;;;;;;5002331;28;20030;-86
2021/01/05 04:17:55;;;;;;;18.45;12.15;;;3.20;99.90;;;;;;5003212;28;20037;-86
2021/01/05 04:20:22;;;;;;;19.67;12.63;;;3.20;99.90;;;;;;4996691;28;20037;-86
2021/01/05 04:22:47;;;;;;;16.25;11.57;;;3.20;99.90;;;;;;5002184;28;20053;-87
2021/01/05 04:25:15;;;;;;;17.75;12.55;;;3.20;99.90;;;;;;5004849;28;20542;-86
2021/01/05 04:27:41;;;;;;;17.50;11.15;;;3.20;99.90;;;;;;5000715;28;20026;-87
2021/01/05 04:30:15;;;;;;;18.95;11.30;;;3.10;99.90;;;;;;4998989;28;20026;-87
2021/01/05 04:32:41;;;;;;;19.00;12.63;;;3.20;99.90;;;;;;4996683;28;20053;-87
2021/01/05 04:35:07;;;;;;;17.33;11.73;;;3.20;99.90;;;;;;4999530;28;20030;-87
2021/01/05 04:37:32;;;;;;;20.27;12.38;;;3.20;99.90;;;;;;5001457;28;20033;-87
2021/01/05 04:39:58;;;;;;;20.88;12.00;;;3.20;99.90;;;;;;5002069;28;20034;-87
2021/01/05 04:42:38;;;;;;;16.33;11.07;;;3.20;99.90;;;;;;5018875;28;20092;-87
2021/01/05 04:45:07;;;;;;;;;;;3.20;99.90;;;;;;5020833;28;20023;-87
2021/01/05 04:47:56;;;;;;;18.88;12.25;;;3.10;99.90;;;;;;5002633;28;19909;-86
2021/01/05 04:50:38;;;;;;;21.38;12.50;;;3.10;99.90;;;;;;5015550;28;20026;-87
2021/01/05 04:53:14;;;;;;;21.83;13.52;;;3.10;99.90;;;;;;5001049;28;20506;-86
2021/01/05 04:56:00;;;;;;;19.23;12.50;;;3.20;99.90;;;;;;5020419;28;20130;-86
2021/01/05 04:58:45;;;;;;;20.50;12.57;;;3.10;99.90;;;;;;5004253;28;20018;-86
2021/01/05 05:01:23;;;;;;;22.50;13.30;;;3.10;99.90;;;;;;5006079;28;20022;-86
2021/01/05 05:04:19;;;;;;;18.58;12.50;;;3.10;99.90;;;;;;5010500;28;20477;-87
2021/01/05 05:06:47;;;;;;;19.67;12.68;;;3.20;99.90;;;;;;4998180;28;20071;-86
2021/01/05 05:09:25;;;;;;;19.38;11.88;;;3.10;99.90;;;;;;4999241;28;20026;-87
2021/01/05 05:12:05;;;;;;;19.48;12.32;;;3.20;99.90;;;;;;5000911;28;20034;-87
2021/01/05 05:14:58;;;;;;;20.80;13.15;;;3.20;99.90;;;;;;5005484;28;20101;-87
2021/01/05 05:17:39;;;;;;;17.42;11.55;;;3.20;99.90;;;;;;4997608;28;20026;-86
2021/01/05 05:20:10;;;;;;;18.90;11.32;;;3.20;99.90;;;;;;5000370;28;20054;-86
2021/01/05 05:22:50;;;;;;;16.90;11.48;;;3.20;99.90;;;;;;4997624;28;20032;-87
2021/01/05 05:25:18;;;;;;;;;;;3.20;99.90;;;;;;5004191;28;20023;-86
2021/01/05 05:27:54;;;;;;;22.33;13.27;;;3.20;99.90;;;;;;4999143;28;19960;-87
2021/01/05 05:30:34;;;;;;;17.88;11.88;;;3.10;99.90;;;;;;4996261;28;20021;-86
2021/01/05 05:33:00;;;;;;;;;;;3.20;99.90;;;;;;4997372;28;20069;-86
2021/01/05 05:35:59;;;;;;;17.40;11.50;;;3.20;99.90;;;;;;5002613;28;20321;-86
2021/01/05 05:38:37;;;;;;;17.45;11.13;;;3.20;99.90;;;;;;5007151;28;20026;-87
2021/01/05 05:41:23;;;;;;;17.40;11.25;;;3.10;99.90;;;;;;5004631;28;20452;-86
2021/01/05 05:44:11;;;;;;;16.23;10.75;;;3.20;99.90;;;;;;5000156;28;20018;-86
2021/01/05 05:47:09;;;;;;;16.20;9.77;;;3.20;99.90;;;;;;5002995;28;20024;-86
2021/01/05 05:49:58;;;;;;;16.10;10.10;;;3.20;99.90;;;;;;4997405;28;20030;-86
2021/01/05 05:52:37;;;;;;;13.85;9.30;;;3.20;99.90;;;;;;5118442;27;20751;-87
2021/01/05 05:55:18;;;;;;;15.05;9.00;;;3.30;99.90;;;;;;5109273;28;20507;-87
2021/01/05 05:57:47;;;;;;;14.50;9.77;;;3.30;99.90;;;;;;5107224;28;20062;-88
2021/01/05 06:00:27;;;;;;;14.88;10.20;;;3.30;99.90;;;;;;5086545;28;20051;-86
2021/01/05 06:02:52;;;;;;;14.77;9.98;;;3.30;99.90;;;;;;5081627;28;20103;-86
2021/01/05 06:05:29;;;;;;;14.95;9.13;;;3.30;99.90;;;;;;5078110;28;20522;-87
2021/01/05 06:07:55;;;;;;;15.98;9.88;;;3.30;99.90;;;;;;5092009;28;20023;-87
2021/01/05 06:10:21;;;;;;;15.25;9.65;;;3.30;99.90;;;;;;5092004;28;20020;-87
2021/01/05 06:12:47;;;;;;;14.07;9.90;;;3.30;99.90;;;;;;5089406;28;20038;-87
2021/01/05 06:15:13;;;;;;;15.52;9.55;;;3.30;99.90;;;;;;5091877;28;20107;-87
2021/01/05 06:17:39;;;;;;;14.50;10.05;;;3.30;99.90;;;;;;5091951;28;20023;-87
2021/01/05 06:20:05;;;;;;;15.10;9.63;;;3.30;99.90;;;;;;5088480;28;20032;-87
2021/01/05 06:22:31;;;;;;;14.90;10.43;;;3.30;99.90;;;;;;5098063;28;20017;-88
2021/01/05 06:24:56;;;;;;;14.90;9.38;;;3.30;99.90;;;;;;5090158;28;20020;-87
2021/01/05 06:27:22;;;;;;;14.13;10.02;;;3.30;99.90;;;;;;5091912;28;20020;-87
2021/01/05 06:29:47;;;;;;;19.40;10.93;;;3.30;99.90;;;;;;5091912;28;20099;-87
2021/01/05 06:32:13;;;;;;;16.02;10.55;;;3.30;99.90;;;;;;5091793;28;20032;-87
2021/01/05 06:34:38;;;;;;;18.27;11.65;;;3.30;99.90;;;;;;5091963;28;20024;-87
2021/01/05 06:37:04;;;;;;;14.75;9.77;;;3.30;99.90;;;;;;5091571;28;20015;-87
2021/01/05 06:39:29;;;;;;;15.68;10.25;;;3.30;99.90;;;;;;5109948;28;20085;-87
2021/01/05 06:41:55;;;;;;;16.23;10.90;;;3.30;99.90;;;;;;5091778;28;20395;-87
2021/01/05 06:44:20;;;;;;;16.10;10.68;;;3.30;99.90;;;;;;5091671;28;20472;-88
2021/01/05 06:46:53;;;;;;;13.02;7.97;;;3.30;99.90;;;;;;5091687;28;20028;-87
2021/01/05 06:49:18;;;;;;;14.02;9.07;;;3.30;99.90;;;;;;5091610;28;20032;-87
2021/01/05 06:51:47;;;;;;;14.63;9.43;;;3.30;99.90;;;;;;5101707;28;20647;-86
2021/01/05 06:54:12;;;;;;;13.63;9.10;;;3.40;99.90;;;;;;5108693;28;20024;-87
2021/01/05 06:56:55;;;;;;;13.95;9.77;;;3.40;99.90;;;;;;5109066;28;20016;-87
2021/01/05 06:59:22;;;;;;;15.18;9.10;;;3.40;99.90;;;;;;5110021;28;20115;-87
2021/01/05 07:01:56;;;;;;;16.45;9.82;;;3.40;99.90;;;;;;5108054;28;20024;-87
2021/01/05 07:04:23;;;;;;;14.70;9.75;;;3.40;99.90;;;;;;5096664;28;20028;-86
2021/01/05 07:06:48;;;;;;;14.73;9.55;;;3.30;99.90;;;;;;5077188;28;20067;-86
2021/01/05 07:09:15;;;;;;;16.30;10.30;;;3.30;99.90;;;;;;5074779;28;20048;-87
2021/01/05 07:11:41;;;;;;;15.10;10.18;;;3.30;99.90;;;;;;5075122;28;20032;-86
2021/01/05 07:14:07;;;;;;;15.57;9.98;;;3.30;99.90;;;;;;5074869;28;20067;-88
2021/01/05 07:16:33;;;;;;;17.63;9.63;;;3.30;99.90;;;;;;5093101;28;20228;-87
2021/01/05 07:18:58;;;;;;;16.88;10.57;;;3.30;99.90;;;;;;5086812;28;20464;-87
2021/01/05 07:21:24;;;;;;;16.40;8.57;;;3.30;99.90;;;;;;5095801;28;20027;-87
2021/01/05 07:23:50;;;;;;;13.80;9.00;;;3.40;99.90;;;;;;5094464;28;20028;-88
2021/01/05 07:26:16;;;;;;;16.00;9.35;;;3.40;99.90;;;;;;5094892;28;20027;-87
2021/01/05 07:28:42;;;;;;;18.25;11.15;;;3.40;99.90;;;;;;5095323;28;20028;-87
2021/01/05 07:31:08;;;;;;;19.17;10.65;;;3.30;99.90;;;;;;5094274;28;20559;-87
2021/01/05 07:33:33;;;;;;;14.82;9.43;;;3.30;99.90;;;;;;5094350;28;20065;-87
2021/01/05 07:36:03;;;;;;;17.75;10.55;;;3.30;99.90;;;;;;5094487;28;20062;-89
2021/01/05 07:38:29;;;;;;;17.48;11.38;;;3.30;99.90;;;;;;5094299;28;20020;-87
2021/01/05 07:40:54;;;;;;;16.85;9.38;;;3.30;99.90;;;;;;5094099;28;20043;-87
2021/01/05 07:43:20;;;;;;;15.63;9.30;;;3.30;99.90;;;;;;5094295;28;20020;-87
2021/01/05 07:45:46;;;;;;;18.42;10.90;;;3.30;99.90;;;;;;5094037;28;20034;-90
2021/01/05 07:48:11;;;;;;;19.23;11.00;;;3.30;99.90;;;;;;5073123;28;20028;-89
2021/01/05 07:50:37;;;;;;;19.13;11.57;;;3.30;99.90;;;;;;5083293;28;20094;-88
2021/01/05 07:53:03;;;;;;;18.90;11.00;;;3.30;99.90;;;;;;5078938;28;20113;-88
2021/01/05 07:55:29;;;;;;;20.85;11.50;;;3.30;99.90;;;;;;5080658;28;20055;-87
2021/01/05 07:57:55;;;;;;;20.00;10.80;;;3.30;99.90;;;;;;5109835;28;20024;-88
2021/01/05 08:00:24;;;;;;;21.10;12.57;;;3.30;99.90;;;;;;5113865;28;20049;-88
2021/01/05 08:02:53;;;;;;;24.52;12.52;;;3.30;99.90;;;;;;5109863;28;20499;-87
2021/01/05 08:05:20;;;;;;;17.75;10.95;;;3.30;99.90;;;;;;5102647;28;20426;-88
2021/01/05 08:07:47;;;;;;;22.27;12.68;;;3.30;99.90;;;;;;5094064;28;20031;-87
2021/01/05 08:10:16;;;;;;;22.73;12.27;;;3.30;99.90;;;;;;5089706;28;20055;-89
2021/01/05 08:12:44;;;;;;;19.60;11.70;;;3.30;99.90;;;;;;5074839;28;20080;-88
2021/01/05 08:15:12;;;;;;;20.63;12.00;;;3.30;99.90;;;;;;5083258;28;20123;-89
2021/01/05 08:17:38;;;;;;;22.58;12.55;;;3.30;99.90;;;;;;5096529;28;20578;-88
2021/01/05 08:20:04;;;;;;;23.88;12.63;;;3.30;99.90;;;;;;5109471;28;20081;-87
2021/01/05 08:22:30;;;;;;;21.88;12.85;;;3.30;99.90;;;;;;5094535;28;20028;-88
2021/01/05 08:24:55;;;;;;;21.30;12.35;;;3.30;99.90;;;;;;5093797;28;20028;-88
2021/01/05 08:27:21;;;;;;;21.67;12.77;;;3.30;99.90;;;;;;5093450;28;20495;-88
2021/01/05 08:29:46;;;;;;;20.05;11.68;;;3.30;99.90;;;;;;5093714;28;20035;-88
2021/01/05 08:32:12;;;;;;;20.73;10.85;;;3.30;99.90;;;;;;5093868;28;20024;-88
2021/01/05 08:34:37;;;;;;;19.23;10.82;;;3.30;99.90;;;;;;5093821;28;20027;-88
2021/01/05 08:37:03;;;;;;;20.33;11.10;;;3.30;99.90;;;;;;5093118;28;20024;-88
2021/01/05 08:39:29;;;;;;;22.60;11.77;;;3.30;99.90;;;;;;5093419;28;20424;-89
2021/01/05 08:41:56;;;;;;;20.42;11.95;;;3.40;99.90;;;;;;5093501;28;20054;-88
2021/01/05 08:44:22;;;;;;;20.15;12.00;;;3.40;99.90;;;;;;5096692;28;20084;-88
2021/01/05 08:46:48;;;;;;;25.70;14.23;;;3.40;99.90;;;;;;5106515;28;20032;-87
2021/01/05 08:49:13;;;;;;;22.63;12.40;;;3.40;99.90;;;;;;5112550;28;20034;-88
2021/01/05 08:51:39;;;;;;;21.02;12.23;;;3.40;99.90;;;;;;5113772;28;20050;-88
2021/01/05 08:54:05;;;;;;;23.90;13.20;;;3.40;99.90;;;;;;5113238;28;20065;-88
2021/01/05 08:56:30;;;;;;;21.15;12.07;;;3.40;99.90;;;;;;5111015;28;20509;-87
2021/01/05 08:58:57;;;;;;;18.95;11.30;;;3.40;99.90;;;;;;5073185;28;20024;-88
2021/01/05 09:01:23;;;;;;;17.52;10.73;;;3.40;99.90;;;;;;5071033;28;20031;-87
2021/01/05 09:03:48;;;;;;;20.40;11.82;;;3.40;99.90;;;;;;5073367;28;20032;-87
2021/01/05 09:06:23;;;;;;;21.77;12.45;;;3.50;99.90;;;;;;5073089;28;20028;-88
2021/01/05 09:08:51;;;;;;;20.10;12.60;;;3.50;99.90;;;;;;5073932;28;20025;-87
2021/01/05 09:11:24;;;;;;;22.27;12.63;;;3.40;99.90;;;;;;5070483;28;20020;-87
2021/01/05 09:13:50;;;;;;;22.50;13.38;;;3.50;99.90;;;;;;5072036;28;20024;-87
2021/01/05 09:16:21;;;;;;;20.33;11.95;;;3.50;99.90;;;;;;5071900;28;20059;-88
2021/01/05 09:18:47;;;;;;;21.88;12.35;;;3.50;99.90;;;;;;5073150;28;20020;-88
2021/01/05 09:21:13;;;;;;;20.23;12.75;;;3.50;99.90;;;;;;5072914;28;20088;-88
2021/01/05 09:23:39;;;;;;;21.38;13.35;;;3.50;99.90;;;;;;5105388;28;20070;-87
2021/01/05 09:26:08;;;;;;;22.15;13.82;;;3.60;99.90;;;;;;5101888;28;20487;-87
2021/01/05 09:28:35;;;;;;;22.38;13.77;;;3.50;99.90;;;;;;5114108;28;20028;-87
2021/01/05 09:31:01;;;;;;;21.05;13.60;;;3.50;99.90;;;;;;5104569;28;20441;-87
2021/01/05 09:33:27;;;;;;;21.00;14.23;;;3.60;99.90;;;;;;5093388;28;20503;-87
2021/01/05 09:35:52;;;;;;;20.27;12.23;;;3.60;99.90;;;;;;5092243;28;20021;-87
2021/01/05 09:38:18;;;;;;;18.63;11.27;;;3.60;99.90;;;;;;5091895;28;20027;-86
2021/01/05 09:40:43;;;;;;;17.05;11.63;;;3.60;99.90;;;;;;5091972;28;20020;-87
2021/01/05 09:43:12;;;;;;;17.20;11.02;;;3.60;99.90;;;;;;5076452;28;20020;-86
2021/01/05 09:45:41;;;;;;;20.05;13.10;;;3.70;99.90;;;;;;5070872;28;20488;-87
2021/01/05 09:48:10;;;;;;;20.17;13.20;;;3.70;99.90;;;;;;5071689;28;20028;-87
2021/01/05 09:50:39;;;;;;;22.85;14.20;;;3.70;99.90;;;;;;5071081;28;20048;-87
2021/01/05 09:53:04;;;;;;;21.10;13.60;;;3.70;99.90;;;;;;5071823;28;20029;-87
2021/01/05 09:55:31;;;;;;;21.38;12.75;;;3.70;99.90;;;;;;5071870;28;20052;-87
2021/01/05 09:57:58;;;;;;;21.60;12.98;;;3.70;99.90;;;;;;5079731;28;20030;-87
2021/01/05 10:00:24;;;;;;;21.13;13.95;;;3.70;99.90;;;;;;5071579;28;20016;-88
2021/01/05 10:02:49;;;;;;;19.42;13.38;;;3.70;99.90;;;;;;5071767;28;20032;-89
2021/01/05 10:05:16;;;;;;;19.48;12.93;;;3.70;99.90;;;;;;5077566;28;20016;-90
2021/01/05 10:07:42;;;;;;;19.70;12.43;;;3.70;99.90;;;;;;5093942;28;20016;-90
2021/01/05 10:10:17;;;;;;;19.10;12.35;;;3.60;99.90;;;;;;5091717;28;20024;-87
2021/01/05 10:12:43;;;;;;;18.55;11.50;;;3.70;99.90;;;;;;5092118;28;20028;-88
2021/01/05 10:15:09;;;;;;;19.13;12.27;;;3.70;99.90;;;;;;5085913;28;20528;-86
2021/01/05 10:17:35;;;;;;;21.77;13.43;;;3.70;99.90;;;;;;5079763;28;20020;-87
2021/01/05 10:20:01;;;;;;;20.63;13.10;;;3.70;99.90;;;;;;5078979;28;20099;-86
2021/01/05 10:22:26;;;;;;;19.50;12.38;;;3.70;99.90;;;;;;5081866;28;20024;-87
2021/01/05 10:24:52;;;;;;;24.60;13.95;;;3.70;99.90;;;;;;5080672;28;20028;-86
2021/01/05 10:27:17;;;;;;;22.02;13.65;;;3.70;99.90;;;;;;5082192;28;20097;-86
2021/01/05 10:29:43;;;;;;;20.67;13.07;;;3.70;99.90;;;;;;5079746;28;20422;-86
2021/01/05 10:32:08;;;;;;;18.80;12.43;;;3.70;99.90;;;;;;5080942;28;20020;-86
2021/01/05 10:34:34;;;;;;;20.83;13.90;;;3.70;99.90;;;;;;5075509;28;20044;-86
2021/01/05 10:37:00;;;;;;;20.10;13.13;;;3.80;99.90;;;;;;5078844;28;20535;-87
2021/01/05 10:39:28;;;;;;;19.65;12.43;;;3.80;99.90;;;;;;5083663;28;20434;-87
2021/01/05 10:41:53;;;;;;;20.02;11.60;;;3.80;99.90;;;;;;5080793;28;20043;-87
2021/01/05 10:44:21;;;;;;;18.35;11.95;;;3.80;99.90;;;;;;5085374;28;20024;-87
2021/01/05 10:46:47;;;;;;;18.27;11.85;;;3.80;99.90;;;;;;5067499;28;20495;-87
2021/01/05 10:49:14;;;;;;;19.98;12.80;;;3.80;99.90;;;;;;5082299;28;20024;-87
2021/01/05 10:51:54;;;;;;;17.08;11.70;;;3.80;99.90;;;;;;5082122;28;20039;-87
2021/01/05 10:54:22;;;;;;;18.10;12.68;;;3.80;99.90;;;;;;5086539;28;20028;-87
2021/01/05 10:56:57;;;;;;;17.17;11.65;;;3.70;99.90;;;;;;5068398;28;20052;-87
2021/01/05 10:59:23;;;;;;;19.02;12.68;;;3.80;99.90;;;;;;5085226;28;20042;-87
2021/01/05 11:01:49;;;;;;;16.92;11.00;;;3.70;99.90;;;;;;5084117;28;20021;-86
2021/01/05 11:04:15;;;;;;;14.68;10.32;;;3.70;99.90;;;;;;5080842;28;20395;-87
2021/01/05 11:06:50;;;;;;;15.43;9.88;;;3.70;99.90;;;;;;5092964;28;20048;-87
2021/01/05 11:09:15;;;;;;;13.00;9.73;;;3.70;99.90;;;;;;5095744;28;20186;-87
2021/01/05 11:11:41;;;;;;;12.85;8.88;;;3.70;99.90;;;;;;5094243;28;20028;-87
2021/01/05 11:14:06;;;;;;;13.05;9.60;;;3.70;99.90;;;;;;5095755;28;20032;-86
2021/01/05 11:16:32;;;;;;;13.98;9.43;;;3.70;99.90;;;;;;5094538;28;20012;-87
2021/01/05 11:18:57;;;;;;;13.18;9.10;;;3.70;99.80;;;;;;5092423;28;20028;-87
2021/01/05 11:21:23;;;;;;;13.18;8.85;;;3.70;99.80;;;;;;5077351;28;20667;-87
2021/01/05 11:23:48;;;;;;;14.77;9.93;;;3.70;99.70;;;;;;5076746;28;20032;-87
2021/01/05 11:26:14;;;;;;;13.13;9.85;;;3.80;99.80;;;;;;5080167;28;20039;-87
2021/01/05 11:28:39;;;;;;;14.55;10.57;;;3.70;99.60;;;;;;5081923;28;20035;-87
2021/01/05 11:31:05;;;;;;;13.32;9.35;;;3.70;99.60;;;;;;5075543;28;20025;-86
2021/01/05 11:33:32;;;;;;;14.57;9.95;;;3.70;99.70;;;;;;5074166;28;20087;-86
2021/01/05 11:35:57;;;;;;;13.30;9.38;;;3.70;99.60;;;;;;5079188;28;20020;-87
2021/01/05 11:38:23;;;;;;;12.68;9.38;;;3.80;99.60;;;;;;5083293;28;20543;-87
2021/01/05 11:40:49;;;;;;;13.35;9.25;;;3.80;99.60;;;;;;5073957;28;20111;-87
2021/01/05 11:43:14;;;;;;;14.10;9.18;;;3.80;99.60;;;;;;5062534;28;20064;-86
2021/01/05 11:45:40;;;;;;;14.98;10.57;;;3.80;99.70;;;;;;5058250;28;20028;-86
2021/01/05 11:48:06;;;;;;;12.27;8.60;;;3.80;99.70;;;;;;5083219;28;20024;-86
2021/01/05 11:50:32;;;;;;;14.63;10.57;;;3.80;99.60;;;;;;5091131;28;20066;-86
2021/01/05 11:52:57;;;;;;;14.30;10.50;;;3.80;99.30;;;;;;5056971;28;20025;-86
2021/01/05 11:55:23;;;;;;;14.85;10.65;;;3.80;99.30;;;;;;5056896;28;20017;-86
2021/01/05 11:57:48;;;;;;;14.18;9.68;;;3.80;99.50;;;;;;5023976;28;20076;-85
2021/01/05 12:00:20;;;;;;;12.82;9.18;;;3.80;99.60;;;;;;5012327;28;20504;-86
2021/01/05 12:02:46;;;;;;;15.38;10.90;;;3.90;99.70;;;;;;5035972;28;20055;-87
2021/01/05 12:05:13;;;;;;;14.30;9.88;;;3.80;99.40;;;;;;5044210;28;20021;-86
2021/01/05 12:07:39;;;;;;;15.20;10.85;;;3.80;99.50;;;;;;5042736;28;20020;-86
2021/01/05 12:10:05;;;;;;;15.13;10.43;;;3.80;99.50;;;;;;5045846;28;20028;-86
2021/01/05 12:12:31;;;;;;;14.18;10.23;;;3.80;99.60;;;;;;5064785;28;20519;-86
2021/01/05 12:14:57;;;;;;;15.32;10.70;;;3.90;99.70;;;;;;5063806;28;20017;-86
2021/01/05 12:17:23;;;;;;;13.00;9.65;;;3.90;99.50;;;;;;5057158;28;20028;-87
2021/01/05 12:19:48;;;;;;;15.48;10.27;;;3.90;99.60;;;;;;5045489;28;20020;-86
2021/01/05 12:22:14;;;;;;;15.13;10.60;;;3.90;99.60;;;;;;5047451;28;20070;-87
2021/01/05 12:24:42;;;;;;;14.82;11.23;;;3.90;99.50;;;;;;5071555;28;20025;-86
2021/01/05 12:27:09;;;;;;;15.80;11.25;;;3.90;99.60;;;;;;5044467;28;20025;-86
2021/01/05 12:29:39;;;;;;;16.67;10.38;;;3.90;99.60;;;;;;5064110;28;20017;-86
2021/01/05 12:32:14;;;;;;;17.13;11.55;;;3.90;99.60;;;;;;5046732;28;20024;-87
2021/01/05 12:34:46;;;;;;;15.90;11.45;;;3.90;99.50;;;;;;5046963;28;20100;-86
2021/01/05 12:37:15;;;;;;;14.85;10.45;;;3.90;99.50;;;;;;5053081;28;20023;-86
2021/01/05 12:39:41;;;;;;;15.73;10.85;;;3.90;99.50;;;;;;5060139;28;20032;-87
2021/01/05 12:42:11;;;;;;;15.88;11.13;;;3.90;99.50;;;;;;5061742;28;20029;-86
2021/01/05 12:44:36;;;;;;;;;;;3.90;99.50;;;;;;5046474;28;20487;-87
2021/01/05 12:47:02;;;;;;;12.82;9.43;;;3.90;99.60;;;;;;5024701;28;19962;-85
2021/01/05 12:49:28;;;;;;;14.70;10.18;;;3.90;99.90;;;;;;5027784;28;20040;-86
2021/01/05 12:51:53;;;;;;;16.48;10.77;;;3.90;99.80;;;;;;5048680;28;20068;-86
2021/01/05 12:54:25;;;;;;;18.85;12.63;;;3.90;99.80;;;;;;5083753;28;20032;-86
2021/01/05 12:56:55;;;;;;;15.65;11.32;;;4.00;99.80;;;;;;5080376;28;20440;-87
2021/01/05 12:59:22;;;;;;;15.75;10.57;;;3.90;99.80;;;;;;5080416;28;20024;-87